Time;durP1;ratioP1;P1;durP2;ratioP2;P2;SDS_P1;SDS_P2;PMS_P1;PMS_P2;Temp;Humidity;BMP_temperature;BMP_pressure;BME280_temperature;BME280_humidity;BME280_pressure;Samples;Min_cycle;Max_cycle;Signal;HPM_P1;HPM_P2
2023/02/12 00:01:42;;;;;;;28.83;15.77;;;11.90;92.70;;;;;;7383057;19;20059;-79
2023/02/12 00:04:15;;;;;;;26.08;13.63;;;11.90;92.90;;;;;;7373437;19;20021;-80
2023/02/12 00:06:44;;;;;;;23.38;13.40;;;11.90;92.60;;;;;;7373317;19;20018;-79
2023/02/12 00:09:12;;;;;;;26.98;14.25;;;11.90;92.50;;;;;;7371395;19;20351;-80
2023/02/12 00:11:41;;;;;;;26.50;13.13;;;11.80;92.50;;;;;;7371737;19;20008;-79
2023/02/12 00:14:10;;;;;;;23.52;12.40;;;11.80;92.50;;;;;;7392006;19;20022;-80
2023/02/12 00:16:38;;;;;;;21.40;11.40;;;11.80;92.50;;;;;;7371763;19;20041;-80
2023/02/12 00:19:07;;;;;;;26.15;12.35;;;11.80;92.50;;;;;;7371615;19;20023;-80
2023/02/12 00:21:38;;;;;;;23.38;12.45;;;11.80;92.60;;;;;;7370667;19;20377;-80
2023/02/12 00:24:07;;;;;;;24.45;12.52;;;11.80;92.60;;;;;;7373880;19;20406;-80
2023/02/12 00:26:37;;;;;;;26.60;13.52;;;11.80;92.60;;;;;;7371161;19;20023;-79
2023/02/12 00:29:06;;;;;;;22.42;12.98;;;11.80;92.60;;;;;;7394687;19;20107;-80
2023/02/12 00:31:35;;;;;;;24.63;12.48;;;11.80;92.60;;;;;;7373935;19;20312;-79
2023/02/12 00:34:03;;;;;;;25.40;12.25;;;11.80;92.60;;;;;;7373346;19;20086;-80
2023/02/12 00:36:33;;;;;;;27.73;13.82;;;11.80;92.60;;;;;;7372379;19;20451;-80
2023/02/12 00:39:05;;;;;;;27.90;13.60;;;11.80;92.60;;;;;;7373775;19;20030;-79
2023/02/12 00:41:34;;;;;;;28.70;14.43;;;11.80;92.70;;;;;;7374088;19;20450;-79
2023/02/12 00:44:02;;;;;;;27.73;13.60;;;11.80;92.70;;;;;;7395087;19;20022;-79
2023/02/12 00:46:31;;;;;;;28.67;14.27;;;11.80;92.70;;;;;;7371584;19;20118;-80
2023/02/12 00:49:00;;;;;;;30.50;14.65;;;11.80;92.70;;;;;;7369784;19;20346;-79
2023/02/12 00:51:29;;;;;;;30.27;14.77;;;11.80;92.80;;;;;;7373645;19;20015;-79
2023/02/12 00:53:58;;;;;;;27.40;13.77;;;11.80;92.80;;;;;;7372666;19;20054;-80
2023/02/12 00:56:29;;;;;;;33.00;15.15;;;11.80;92.80;;;;;;7370136;19;20364;-80
2023/02/12 00:58:58;;;;;;;25.77;12.23;;;11.80;92.80;;;;;;7392815;19;20090;-80
2023/02/12 01:01:27;;;;;;;31.67;15.20;;;11.80;92.80;;;;;;7371972;19;20438;-80
2023/02/12 01:03:55;;;;;;;29.83;15.48;;;11.80;92.90;;;;;;7371509;19;20415;-80
2023/02/12 01:06:27;;;;;;;;;;;11.80;92.90;;;;;;7372953;19;20015;-80
2023/02/12 01:08:55;;;;;;;31.50;14.95;;;11.80;93.00;;;;;;7371190;19;20255;-80
2023/02/12 01:11:24;;;;;;;32.78;15.15;;;11.80;92.90;;;;;;7371731;19;20093;-79
2023/02/12 01:13:56;;;;;;;32.60;16.00;;;11.80;92.90;;;;;;7392153;19;20040;-80
2023/02/12 01:16:25;;;;;;;32.70;16.17;;;11.80;93.00;;;;;;7370788;19;20011;-79
2023/02/12 01:18:56;;;;;;;31.55;16.33;;;11.80;93.00;;;;;;7369153;19;20599;-80
2023/02/12 01:21:27;;;;;;;36.87;17.60;;;11.80;93.00;;;;;;7372089;19;20021;-80
2023/02/12 01:23:56;;;;;;;;;;;11.80;93.10;;;;;;7371358;19;20018;-80
2023/02/12 01:26:25;;;;;;;34.30;16.75;;;11.90;93.10;;;;;;7370841;19;20238;-79
2023/02/12 01:29:00;;;;;;;32.05;15.77;;;11.80;93.00;;;;;;7390622;19;20029;-79
2023/02/12 01:31:31;;;;;;;34.58;14.82;;;11.80;93.00;;;;;;7369821;19;20391;-79
2023/02/12 01:34:01;;;;;;;28.67;14.35;;;11.80;93.00;;;;;;7370188;19;20935;-79
2023/02/12 01:36:31;;;;;;;23.67;13.30;;;11.80;93.00;;;;;;7371664;19;20105;-80
2023/02/12 01:39:01;;;;;;;25.98;13.40;;;11.80;92.90;;;;;;7371245;19;20582;-79
2023/02/12 01:41:33;;;;;;;26.23;12.32;;;11.80;92.90;;;;;;7369879;19;20018;-79
2023/02/12 01:44:18;;;;;;;28.55;12.68;;;11.70;92.80;;;;;;7390651;19;20124;-80
2023/02/12 01:46:47;;;;;;;25.23;11.38;;;11.70;92.90;;;;;;7369565;19;20010;-79
2023/02/12 01:49:20;;;;;;;27.40;12.88;;;11.70;92.80;;;;;;7370373;19;20024;-80
2023/02/12 01:51:53;;;;;;;25.77;12.38;;;11.70;92.80;;;;;;7371280;19;20025;-79
2023/02/12 01:54:24;;;;;;;27.40;12.43;;;11.70;92.80;;;;;;7369218;19;20022;-79
2023/02/12 01:56:53;;;;;;;19.60;10.65;;;11.70;92.70;;;;;;7370825;19;20018;-78
2023/02/12 01:59:26;;;;;;;20.98;10.18;;;11.70;92.60;;;;;;7369130;19;20018;-78
2023/02/12 02:01:56;;;;;;;27.05;11.77;;;11.60;92.50;;;;;;7391329;19;20019;-80
2023/02/12 02:04:28;;;;;;;22.48;10.98;;;11.60;92.50;;;;;;7369035;19;20017;-78
2023/02/12 02:07:00;;;;;;;21.33;10.25;;;11.60;92.50;;;;;;7369768;19;20545;-80
2023/02/12 02:09:30;;;;;;;;;;;11.60;92.50;;;;;;7369826;19;20017;-79
2023/02/12 02:14:49;;;;;;;13.68;7.05;;;11.60;92.20;;;;;;7369795;19;20517;-79
2023/02/12 02:17:40;;;;;;;13.20;6.50;;;11.60;92.10;;;;;;7390550;19;20400;-80
2023/02/12 02:20:35;;;;;;;10.40;5.97;;;11.70;92.10;;;;;;7368508;19;20769;-79
2023/02/12 02:23:47;;;;;;;10.88;6.15;;;11.60;92.00;;;;;;7368503;19;20018;-80
2023/02/12 02:26:32;;;;;;;9.85;5.50;;;11.60;92.00;;;;;;7272636;19;2005206;-80
2023/02/12 02:29:22;;;;;;;9.68;5.50;;;11.60;91.90;;;;;;7389339;19;20019;-80
2023/02/12 02:32:00;;;;;;;9.95;5.50;;;11.60;91.90;;;;;;7367539;19;20078;-79
2023/02/12 02:34:37;;;;;;;9.57;5.43;;;11.70;91.90;;;;;;7367058;19;20018;-79
2023/02/12 02:37:17;;;;;;;10.77;5.63;;;11.70;91.80;;;;;;7368898;19;20604;-79
2023/02/12 02:39:50;;;;;;;9.73;5.45;;;11.70;91.80;;;;;;7372878;19;20042;-79
2023/02/12 02:42:25;;;;;;;9.95;5.40;;;11.80;92.20;;;;;;7373413;19;20429;-80
2023/02/12 02:44:56;;;;;;;12.02;5.93;;;11.80;91.70;;;;;;7373302;19;20122;-79
2023/02/12 02:47:34;;;;;;;7.85;4.75;;;11.70;91.70;;;;;;7371576;19;20019;-79
2023/02/12 02:50:06;;;;;;;9.27;5.43;;;11.70;91.70;;;;;;7392528;19;20022;-80
2023/02/12 02:52:40;;;;;;;9.00;4.90;;;11.80;92.10;;;;;;7373963;19;20823;-79
2023/02/12 02:55:13;;;;;;;10.18;5.03;;;11.80;91.70;;;;;;7374408;19;20025;-80
2023/02/12 02:57:47;;;;;;;10.18;5.63;;;11.80;91.70;;;;;;7374055;19;20054;-79
2023/02/12 03:00:19;;;;;;;9.00;5.18;;;11.80;91.60;;;;;;7372548;19;20029;-78
2023/02/12 03:02:56;;;;;;;11.10;5.35;;;11.80;91.60;;;;;;7373039;19;20026;-80
2023/02/12 03:05:31;;;;;;;9.85;4.40;;;11.80;91.60;;;;;;7376096;19;20446;-79
2023/02/12 03:08:05;;;;;;;12.32;4.88;;;11.80;91.60;;;;;;7395962;19;20006;-80
2023/02/12 03:10:38;;;;;;;14.85;6.82;;;11.80;91.60;;;;;;7374656;19;20010;-79
2023/02/12 03:13:11;;;;;;;9.85;5.63;;;11.80;91.50;;;;;;7375735;19;20542;-79
2023/02/12 03:15:44;;;;;;;7.28;4.07;;;11.80;91.50;;;;;;7376075;19;20043;-81
2023/02/12 03:18:20;;;;;;;11.10;4.72;;;11.80;91.50;;;;;;7375822;19;20011;-80
2023/02/12 03:20:53;;;;;;;6.88;4.05;;;11.80;91.50;;;;;;7372109;19;20015;-80
2023/02/12 03:23:27;;;;;;;10.13;4.35;;;11.80;91.50;;;;;;7374532;19;20022;-78
2023/02/12 03:25:59;;;;;;;6.45;4.00;;;11.80;91.50;;;;;;7396971;19;20576;-80
2023/02/12 03:28:32;;;;;;;10.13;4.47;;;11.80;91.40;;;;;;7373477;19;20021;-80
2023/02/12 03:31:09;;;;;;;6.55;3.88;;;11.80;91.40;;;;;;7374516;19;20014;-80
2023/02/12 03:33:50;;;;;;;7.63;3.78;;;11.80;91.30;;;;;;7374240;19;20026;-80
2023/02/12 03:36:28;;;;;;;6.90;4.00;;;11.80;91.30;;;;;;7375383;19;20018;-80
2023/02/12 03:39:04;;;;;;;7.00;4.00;;;11.80;91.30;;;;;;7375080;19;20038;-80
2023/02/12 03:41:39;;;;;;;6.00;3.53;;;11.80;91.20;;;;;;7375314;19;20023;-80
2023/02/12 03:44:16;;;;;;;7.32;3.75;;;11.90;91.30;;;;;;7393982;19;20022;-80
2023/02/12 03:46:52;;;;;;;6.22;3.53;;;11.90;91.20;;;;;;7375000;19;20019;-80
2023/02/12 03:49:28;;;;;;;8.20;4.43;;;11.90;91.20;;;;;;7375344;19;20050;-81
2023/02/12 03:51:57;;;;;;;7.45;4.10;;;11.90;91.20;;;;;;7377516;19;20025;-81
2023/02/12 03:54:26;;;;;;;8.57;4.25;;;11.90;91.20;;;;;;7374059;19;20019;-79
2023/02/12 03:57:01;;;;;;;7.38;4.10;;;11.90;91.20;;;;;;7375665;19;20095;-81
2023/02/12 03:59:30;;;;;;;8.40;4.43;;;11.90;91.20;;;;;;7377122;19;20095;-79
2023/02/12 04:02:01;;;;;;;7.90;4.10;;;11.90;91.20;;;;;;7400109;19;20031;-80
2023/02/12 04:04:33;;;;;;;8.02;4.38;;;11.90;91.10;;;;;;7377086;19;20017;-80
2023/02/12 04:07:02;;;;;;;6.00;3.80;;;11.90;91.10;;;;;;7375237;19;20030;-81
2023/02/12 04:09:33;;;;;;;9.90;4.75;;;11.90;91.20;;;;;;7373874;19;20019;-80
2023/02/12 04:12:17;;;;;;;9.32;4.70;;;11.90;91.20;;;;;;7373597;19;20014;-80
2023/02/12 04:14:54;;;;;;;9.65;4.85;;;11.80;91.20;;;;;;7373971;19;20082;-80
2023/02/12 04:17:31;;;;;;;10.07;5.40;;;11.80;91.30;;;;;;7374278;19;20316;-80
2023/02/12 04:20:11;;;;;;;10.50;5.78;;;11.80;91.30;;;;;;7394450;19;20022;-79
2023/02/12 04:22:52;;;;;;;10.60;5.82;;;11.80;91.30;;;;;;7373492;19;20030;-79
2023/02/12 04:25:29;;;;;;;9.98;5.75;;;11.80;91.60;;;;;;7384120;19;20066;-80
2023/02/12 04:28:06;;;;;;;12.45;6.18;;;11.80;91.20;;;;;;7395424;19;20026;-80
2023/02/12 04:30:39;;;;;;;11.32;6.10;;;11.80;91.20;;;;;;7385198;19;20101;-79
2023/02/12 04:33:12;;;;;;;10.80;5.90;;;11.80;91.30;;;;;;7373767;19;20018;-80
2023/02/12 04:35:49;;;;;;;12.30;5.90;;;11.80;91.30;;;;;;7375309;19;20011;-80
2023/02/12 04:38:23;;;;;;;10.43;6.10;;;11.80;91.30;;;;;;7393872;19;20082;-80
2023/02/12 04:40:53;;;;;;;14.98;6.43;;;11.80;91.20;;;;;;7370676;19;20077;-79
2023/02/12 04:43:33;;;;;;;11.77;6.50;;;11.80;91.20;;;;;;7374038;19;20082;-80
2023/02/12 04:46:02;;;;;;;11.40;6.40;;;11.70;91.20;;;;;;7373951;19;20030;-79
2023/02/12 04:48:31;;;;;;;11.18;5.88;;;11.60;91.10;;;;;;7372521;19;20023;-80
2023/02/12 04:51:03;;;;;;;10.43;6.00;;;11.70;91.30;;;;;;7371867;19;20021;-79
2023/02/12 04:53:31;;;;;;;10.75;5.40;;;11.70;91.30;;;;;;7370846;19;20022;-79
2023/02/12 04:56:00;;;;;;;11.73;5.85;;;11.70;91.20;;;;;;7393323;19;20026;-79
2023/02/12 04:58:29;;;;;;;8.88;5.60;;;11.70;91.20;;;;;;7371894;19;20022;-79
2023/02/12 05:01:00;;;;;;;8.60;5.47;;;11.70;91.20;;;;;;7369489;19;20337;-80
2023/02/12 05:03:29;;;;;;;10.55;6.07;;;11.80;91.20;;;;;;7372609;19;20014;-80
2023/02/12 05:05:58;;;;;;;10.27;5.70;;;11.80;91.10;;;;;;7372400;19;20017;-79
2023/02/12 05:08:29;;;;;;;10.80;5.85;;;11.80;91.10;;;;;;7371897;19;20018;-79
2023/02/12 05:10:57;;;;;;;9.00;5.45;;;11.80;91.10;;;;;;7395712;19;20018;-79
2023/02/12 05:13:26;;;;;;;9.82;6.00;;;11.90;91.10;;;;;;7374154;19;20111;-80
2023/02/12 05:15:55;;;;;;;8.73;5.32;;;11.90;91.10;;;;;;7371297;19;20113;-80
2023/02/12 05:18:24;;;;;;;14.30;6.50;;;11.90;91.00;;;;;;7371902;19;20403;-80
2023/02/12 05:20:57;;;;;;;11.02;6.00;;;11.90;91.00;;;;;;7370431;19;20020;-80
2023/02/12 05:23:31;;;;;;;11.00;5.70;;;11.90;91.00;;;;;;7371461;19;20120;-80
2023/02/12 05:26:01;;;;;;;7.93;5.05;;;11.80;90.90;;;;;;7393771;19;20019;-80
2023/02/12 05:28:30;;;;;;;9.75;6.10;;;11.80;90.90;;;;;;7370436;19;20014;-80
2023/02/12 05:31:01;;;;;;;8.25;5.20;;;11.80;90.90;;;;;;7370614;19;20015;-81
2023/02/12 05:33:30;;;;;;;10.23;5.20;;;11.80;90.90;;;;;;7369955;19;20022;-79
2023/02/12 05:36:05;;;;;;;10.40;5.10;;;11.80;90.90;;;;;;7370492;19;20010;-80
2023/02/12 05:38:37;;;;;;;11.52;5.63;;;11.80;90.90;;;;;;7371236;19;20094;-80
2023/02/12 05:41:06;;;;;;;11.27;5.88;;;11.80;90.90;;;;;;7391130;19;20018;-80
2023/02/12 05:43:35;;;;;;;10.85;5.88;;;11.70;91.00;;;;;;7370302;19;20099;-79
2023/02/12 05:46:06;;;;;;;11.02;6.18;;;11.80;91.00;;;;;;7369378;19;20018;-80
2023/02/12 05:48:36;;;;;;;9.95;5.60;;;11.80;90.90;;;;;;7369713;19;20087;-79
2023/02/12 05:51:06;;;;;;;11.60;5.38;;;11.70;90.90;;;;;;7370705;19;20371;-79
2023/02/12 05:53:38;;;;;;;11.35;5.35;;;11.70;90.90;;;;;;7370464;19;20018;-78
2023/02/12 05:56:15;;;;;;;12.18;6.32;;;11.70;91.00;;;;;;7391016;19;20018;-79
2023/02/12 05:58:46;;;;;;;10.52;5.60;;;11.70;90.90;;;;;;7368866;19;20099;-79
2023/02/12 06:01:18;;;;;;;8.60;5.07;;;11.70;90.90;;;;;;7367735;19;20392;-79
2023/02/12 06:03:47;;;;;;;10.35;5.60;;;11.70;90.90;;;;;;7370233;19;20014;-79
2023/02/12 06:06:16;;;;;;;8.88;5.15;;;11.70;91.20;;;;;;7368129;19;20025;-79
2023/02/12 06:08:49;;;;;;;10.93;6.00;;;11.70;90.90;;;;;;7367094;19;20086;-80
2023/02/12 06:11:19;;;;;;;10.90;5.57;;;11.70;90.90;;;;;;7389232;19;20022;-79
2023/02/12 06:13:49;;;;;;;10.98;5.45;;;11.70;90.90;;;;;;7375177;19;20074;-79
2023/02/12 06:16:20;;;;;;;11.88;5.90;;;11.70;90.80;;;;;;7374854;19;20414;-79
2023/02/12 06:18:49;;;;;;;10.93;6.20;;;11.60;90.70;;;;;;7376354;19;20085;-80
2023/02/12 06:21:19;;;;;;;12.07;6.45;;;11.70;90.80;;;;;;7375263;19;20022;-79
2023/02/12 06:23:52;;;;;;;10.63;5.93;;;11.60;90.90;;;;;;7377991;19;20384;-79
2023/02/12 06:26:20;;;;;;;11.52;6.05;;;11.60;90.90;;;;;;7392160;19;20018;-79
2023/02/12 06:28:50;;;;;;;10.85;5.80;;;11.60;90.80;;;;;;7398434;19;20019;-80
2023/02/12 06:31:24;;;;;;;10.50;6.18;;;11.60;90.80;;;;;;7377006;19;20637;-80
2023/02/12 06:33:53;;;;;;;10.82;6.43;;;11.70;90.80;;;;;;7377821;19;20111;-79
2023/02/12 06:36:23;;;;;;;11.05;6.22;;;11.70;90.80;;;;;;7378617;19;20011;-79
2023/02/12 06:38:55;;;;;;;12.35;6.10;;;11.70;90.80;;;;;;7379605;19;20013;-79
2023/02/12 06:41:24;;;;;;;13.88;6.47;;;11.60;90.80;;;;;;7371820;19;20018;-80
2023/02/12 06:43:53;;;;;;;12.23;6.53;;;11.60;90.80;;;;;;7396572;19;20023;-81
2023/02/12 06:46:22;;;;;;;11.00;5.80;;;11.60;90.80;;;;;;7377149;19;20010;-80
2023/02/12 06:48:54;;;;;;;10.98;6.15;;;11.60;90.90;;;;;;7375981;19;20014;-80
2023/02/12 06:51:23;;;;;;;11.52;6.30;;;11.60;91.20;;;;;;7375629;19;20109;-80
2023/02/12 06:53:55;;;;;;;14.15;6.70;;;11.60;90.80;;;;;;7375391;19;20015;-81
2023/02/12 06:56:25;;;;;;;9.95;5.55;;;11.60;90.80;;;;;;7377091;19;20125;-80
2023/02/12 06:58:58;;;;;;;13.43;6.72;;;11.70;90.80;;;;;;7396252;19;20081;-79
2023/02/12 07:01:29;;;;;;;14.13;6.15;;;11.60;90.80;;;;;;7375233;19;20110;-80
2023/02/12 07:03:59;;;;;;;10.17;6.07;;;11.70;90.80;;;;;;7375389;19;20026;-80
2023/02/12 07:06:28;;;;;;;12.23;7.07;;;11.70;90.80;;;;;;7376901;19;20251;-80
2023/02/12 07:09:00;;;;;;;11.77;6.38;;;11.70;90.80;;;;;;7374192;19;20010;-79
2023/02/12 07:11:30;;;;;;;10.48;6.05;;;11.70;90.70;;;;;;7376662;19;20084;-80
2023/02/12 07:13:59;;;;;;;9.40;5.47;;;11.70;90.70;;;;;;7392753;19;20656;-80
2023/02/12 07:16:29;;;;;;;11.60;5.63;;;11.70;90.70;;;;;;7375080;19;20018;-81
2023/02/12 07:18:58;;;;;;;8.80;4.85;;;11.70;90.70;;;;;;7376573;19;20014;-80
2023/02/12 07:21:26;;;;;;;8.55;5.18;;;11.70;90.70;;;;;;7374235;19;20406;-80
2023/02/12 07:23:55;;;;;;;8.70;5.25;;;11.70;90.70;;;;;;7374131;19;20011;-79
2023/02/12 07:26:26;;;;;;;8.27;4.93;;;11.70;90.80;;;;;;7374007;19;20041;-79
2023/02/12 07:28:55;;;;;;;9.20;5.28;;;11.70;90.70;;;;;;7395440;19;20018;-79
2023/02/12 07:31:25;;;;;;;7.85;4.82;;;11.70;90.70;;;;;;7373142;19;20018;-80
2023/02/12 07:33:56;;;;;;;8.13;4.47;;;11.70;90.70;;;;;;7374937;19;20085;-79
2023/02/12 07:36:26;;;;;;;8.15;5.10;;;11.60;90.80;;;;;;7376135;19;20093;-79
2023/02/12 07:38:56;;;;;;;7.93;4.85;;;11.60;90.70;;;;;;7374446;19;20529;-79
2023/02/12 07:41:29;;;;;;;9.55;4.70;;;11.70;90.80;;;;;;7375780;19;20024;-80
2023/02/12 07:44:00;;;;;;;9.90;4.85;;;11.60;90.80;;;;;;7393842;19;20664;-80
2023/02/12 07:46:31;;;;;;;8.68;4.88;;;11.70;90.70;;;;;;7375113;19;20095;-81
2023/02/12 07:49:01;;;;;;;7.40;4.65;;;11.70;90.80;;;;;;7374950;19;20021;-82
2023/02/12 07:51:31;;;;;;;10.38;4.95;;;11.70;90.70;;;;;;7374777;19;20365;-80
2023/02/12 07:54:01;;;;;;;8.90;5.20;;;11.70;90.70;;;;;;7376255;19;20025;-80
2023/02/12 07:56:36;;;;;;;9.10;5.40;;;11.80;90.70;;;;;;7378068;19;20025;-80
2023/02/12 07:59:07;;;;;;;8.68;4.72;;;11.70;90.70;;;;;;7396693;19;20018;-81
2023/02/12 08:01:38;;;;;;;10.88;6.03;;;11.80;90.70;;;;;;7374967;19;20022;-81
2023/02/12 08:04:08;;;;;;;8.63;5.30;;;11.80;90.60;;;;;;7374864;19;20014;-81
2023/02/12 08:06:38;;;;;;;9.90;5.38;;;11.80;90.60;;;;;;7373363;19;20074;-80
2023/02/12 08:09:10;;;;;;;8.35;4.97;;;11.80;90.70;;;;;;7375067;19;20094;-81
2023/02/12 08:11:43;;;;;;;9.82;6.28;;;11.90;90.80;;;;;;7373205;19;20022;-81
2023/02/12 08:14:14;;;;;;;11.82;6.10;;;11.90;90.80;;;;;;7399229;19;20094;-80
2023/02/12 08:16:44;;;;;;;9.85;5.57;;;11.90;90.80;;;;;;7374336;19;20087;-81
2023/02/12 08:19:13;;;;;;;8.60;4.82;;;11.90;90.70;;;;;;7376646;19;20098;-80
2023/02/12 08:21:42;;;;;;;8.00;5.10;;;12.00;90.70;;;;;;7376241;19;20025;-81
2023/02/12 08:24:12;;;;;;;9.13;5.15;;;12.00;90.70;;;;;;7375951;19;20018;-82
2023/02/12 08:26:43;;;;;;;8.95;4.95;;;11.90;90.70;;;;;;7374356;19;20111;-81
2023/02/12 08:29:13;;;;;;;;;;;12.00;90.70;;;;;;7396952;19;20039;-80
2023/02/12 08:31:44;;;;;;;7.00;4.68;;;12.10;90.70;;;;;;7370571;19;20297;-79
2023/02/12 08:34:19;;;;;;;9.37;5.07;;;12.10;90.50;;;;;;7370674;19;20102;-81
2023/02/12 08:36:49;;;;;;;8.70;4.63;;;12.10;90.70;;;;;;7372712;19;20014;-82
2023/02/12 08:39:19;;;;;;;8.32;4.75;;;12.10;90.60;;;;;;7371046;19;20015;-82
2023/02/12 08:41:50;;;;;;;8.52;4.47;;;12.10;90.60;;;;;;7372986;19;20097;-81
2023/02/12 08:44:20;;;;;;;8.85;4.85;;;12.10;90.50;;;;;;7395910;19;20025;-81
2023/02/12 08:46:50;;;;;;;7.07;4.50;;;12.20;90.50;;;;;;7373285;19;20053;-80
2023/02/12 08:49:21;;;;;;;9.75;5.00;;;12.10;90.40;;;;;;7373627;19;20014;-80
2023/02/12 08:51:52;;;;;;;8.50;4.85;;;12.20;90.40;;;;;;7372935;19;20021;-80
2023/02/12 08:54:22;;;;;;;8.35;4.75;;;12.20;90.30;;;;;;7372174;19;20365;-80
2023/02/12 08:56:57;;;;;;;9.38;4.65;;;12.20;90.30;;;;;;7374259;19;20029;-80
2023/02/12 08:59:26;;;;;;;7.15;4.32;;;12.20;90.20;;;;;;7373280;19;20018;-78
2023/02/12 09:01:55;;;;;;;8.23;4.50;;;12.20;90.20;;;;;;7393134;19;20033;-80
2023/02/12 09:04:26;;;;;;;10.32;4.97;;;12.30;90.70;;;;;;7372849;19;20024;-80
2023/02/12 09:06:55;;;;;;;8.75;4.45;;;12.30;90.30;;;;;;7372845;19;20123;-80
2023/02/12 09:09:24;;;;;;;8.13;4.82;;;12.30;90.30;;;;;;7373039;19;20078;-80
2023/02/12 09:11:55;;;;;;;10.02;5.25;;;12.30;90.60;;;;;;7373535;19;20014;-80
2023/02/12 09:14:24;;;;;;;8.75;4.53;;;12.30;90.10;;;;;;7374436;19;20581;-80
2023/02/12 09:16:53;;;;;;;9.57;5.00;;;12.30;90.10;;;;;;7394731;19;20019;-80
2023/02/12 09:19:23;;;;;;;11.95;5.53;;;12.30;90.20;;;;;;7376267;19;20018;-79
2023/02/12 09:21:54;;;;;;;9.20;4.90;;;12.30;90.10;;;;;;7375942;19;20018;-79
2023/02/12 09:24:22;;;;;;;9.38;4.93;;;12.30;90.10;;;;;;7373709;19;20014;-80
2023/02/12 09:26:51;;;;;;;9.45;5.18;;;12.30;90.10;;;;;;7373045;19;20350;-81
2023/02/12 09:29:22;;;;;;;10.48;5.45;;;12.30;90.20;;;;;;7392338;19;20018;-79
2023/02/12 09:31:51;;;;;;;9.10;4.95;;;12.40;90.20;;;;;;7392315;19;20024;-80
2023/02/12 09:34:20;;;;;;;9.57;4.68;;;12.40;90.10;;;;;;7372657;19;20445;-80
2023/02/12 09:36:48;;;;;;;7.75;4.63;;;12.40;90.00;;;;;;7371876;19;20082;-80
2023/02/12 09:39:17;;;;;;;9.90;4.95;;;12.40;90.00;;;;;;7369278;19;20014;-81
2023/02/12 09:42:17;;;;;;;11.13;5.10;;;12.40;90.00;;;;;;7372441;19;20018;-81
2023/02/12 09:44:57;;;;;;;10.70;5.40;;;12.40;90.10;;;;;;7372466;19;20105;-81
2023/02/12 09:47:30;;;;;;;8.95;4.97;;;12.40;90.00;;;;;;7372449;19;20330;-80
2023/02/12 09:50:12;;;;;;;8.90;5.05;;;12.40;90.00;;;;;;7393726;19;20117;-81
2023/02/12 09:52:41;;;;;;;9.82;4.80;;;12.50;89.90;;;;;;7371245;19;20021;-82
2023/02/12 09:55:15;;;;;;;8.88;4.93;;;12.50;89.50;;;;;;7371109;19;20026;-80
2023/02/12 09:57:45;;;;;;;9.95;4.85;;;12.50;89.70;;;;;;7372452;19;20090;-81
2023/02/12 10:00:20;;;;;;;8.77;4.55;;;12.60;89.80;;;;;;7374185;19;20078;-81
2023/02/12 10:02:53;;;;;;;7.90;4.70;;;12.60;89.80;;;;;;7363301;19;20015;-80
2023/02/12 10:05:27;;;;;;;7.63;4.38;;;12.60;89.80;;;;;;7372268;19;20089;-79
2023/02/12 10:08:31;;;;;;;7.65;4.50;;;12.60;89.50;;;;;;7392206;19;20018;-81
2023/02/12 10:11:15;;;;;;;7.53;4.57;;;12.70;89.60;;;;;;7369816;19;20018;-81
2023/02/12 10:13:52;;;;;;;9.85;4.72;;;12.80;89.20;;;;;;7372607;19;20018;-81
2023/02/12 10:16:38;;;;;;;7.05;3.80;;;12.80;89.10;;;;;;7370623;19;20548;-81
2023/02/12 10:19:24;;;;;;;8.02;3.90;;;12.90;88.90;;;;;;7370497;19;20479;-81
2023/02/12 10:22:06;;;;;;;8.23;3.47;;;12.90;88.80;;;;;;7370903;19;20017;-81
2023/02/12 10:24:59;;;;;;;5.95;3.50;;;12.90;88.40;;;;;;7370258;19;20125;-80
2023/02/12 10:27:39;;;;;;;4.95;3.50;;;13.00;88.60;;;;;;7368816;19;20117;-82
2023/02/12 10:30:20;;;;;;;5.40;3.55;;;13.00;87.80;;;;;;7370100;19;20093;-82
2023/02/12 10:32:54;;;;;;;7.10;3.30;;;13.00;88.00;;;;;;7369326;19;20022;-81
2023/02/12 10:35:25;;;;;;;6.43;3.50;;;13.00;87.80;;;;;;7369533;19;20462;-82
2023/02/12 10:37:59;;;;;;;7.20;3.38;;;13.10;87.80;;;;;;7380912;19;20018;-83
2023/02/12 10:40:31;;;;;;;5.93;3.22;;;13.10;87.90;;;;;;7369397;19;20019;-81
2023/02/12 10:43:02;;;;;;;6.55;3.05;;;13.10;87.70;;;;;;7360494;19;20039;-83
2023/02/12 10:45:34;;;;;;;7.13;3.35;;;13.10;87.40;;;;;;7379115;19;20031;-80
2023/02/12 10:48:10;;;;;;;6.97;3.25;;;13.00;87.40;;;;;;7381377;19;20030;-84
2023/02/12 10:50:53;;;;;;;6.65;3.22;;;13.00;87.50;;;;;;7377699;19;20019;-84
2023/02/12 10:53:25;;;;;;;5.35;3.40;;;13.10;88.30;;;;;;7370521;19;20079;-85
2023/02/12 10:56:13;;;;;;;5.82;3.15;;;13.10;87.40;;;;;;7394759;19;20018;-84
2023/02/12 10:58:44;;;;;;;7.80;3.92;;;13.10;87.20;;;;;;7374539;19;20070;-82
2023/02/12 11:01:18;;;;;;;6.93;3.70;;;13.10;87.10;;;;;;7379240;19;20082;-82
2023/02/12 11:03:50;;;;;;;6.78;3.53;;;13.10;87.00;;;;;;7375663;19;20327;-82
2023/02/12 11:06:22;;;;;;;8.55;3.67;;;13.10;87.10;;;;;;7382543;19;20105;-81
2023/02/12 11:08:51;;;;;;;6.57;3.97;;;13.20;87.20;;;;;;7385459;19;20043;-87
2023/02/12 11:11:24;;;;;;;6.90;3.90;;;13.20;86.90;;;;;;7407200;19;20041;-82
2023/02/12 11:13:58;;;;;;;7.72;4.05;;;13.20;86.90;;;;;;7414029;19;20018;-87
2023/02/12 11:16:33;;;;;;;7.22;4.45;;;13.10;86.90;;;;;;7382610;19;20086;-85
2023/02/12 11:19:07;;;;;;;7.05;4.03;;;13.10;87.00;;;;;;7381075;19;20054;-87
2023/02/12 11:21:37;;;;;;;13.90;5.97;;;13.20;87.20;;;;;;7384101;19;20014;-87
2023/02/12 11:24:29;;;;;;;7.38;4.40;;;13.20;87.20;;;;;;7379785;19;20437;-84
2023/02/12 11:27:14;;;;;;;6.93;4.13;;;13.10;86.90;;;;;;7372849;19;20022;-81
2023/02/12 11:29:43;;;;;;;8.43;4.22;;;13.00;87.20;;;;;;7375299;19;20034;-85
2023/02/12 11:32:18;;;;;;;6.55;4.00;;;13.00;87.10;;;;;;7395764;19;20025;-81
2023/02/12 11:35:07;;;;;;;6.50;3.88;;;13.10;87.20;;;;;;7372922;19;20113;-90
2023/02/12 11:37:41;;;;;;;6.32;3.90;;;13.00;87.10;;;;;;7376764;19;20077;-84
2023/02/12 11:40:20;;;;;;;7.28;3.67;;;13.10;86.80;;;;;;7375842;19;20098;-81
2023/02/12 11:42:53;;;;;;;6.10;3.70;;;13.10;86.90;;;;;;7372486;19;20053;-82
2023/02/12 11:45:25;;;;;;;6.40;3.65;;;13.10;87.00;;;;;;7379398;19;20023;-81
2023/02/12 11:47:54;;;;;;;7.03;4.03;;;13.20;86.60;;;;;;7373338;19;20396;-86
2023/02/12 11:50:29;;;;;;;5.80;3.85;;;13.20;86.60;;;;;;7372392;19;20359;-81
2023/02/12 11:53:02;;;;;;;9.15;4.03;;;13.20;86.80;;;;;;7391262;19;20539;-83
2023/02/12 11:55:34;;;;;;;6.93;4.00;;;13.20;86.50;;;;;;7374028;19;20449;-80
2023/02/12 11:58:06;;;;;;;;;;;13.20;86.60;;;;;;7378667;19;20153;-82
2023/02/12 12:00:39;;;;;;;7.85;3.70;;;13.40;86.70;;;;;;7378276;19;19914;-83
2023/02/12 12:03:17;;;;;;;8.65;4.05;;;13.30;87.10;;;;;;7380113;19;20033;-83
2023/02/12 12:05:52;;;;;;;6.97;4.30;;;13.30;86.40;;;;;;7375650;19;20089;-82
2023/02/12 12:08:25;;;;;;;8.73;4.28;;;13.30;86.40;;;;;;7384109;19;20089;-83
2023/02/12 12:11:01;;;;;;;7.53;3.97;;;13.30;87.30;;;;;;7401830;19;20026;-84
2023/02/12 12:13:35;;;;;;;6.50;4.00;;;13.40;86.50;;;;;;7408272;19;20019;-87
2023/02/12 12:21:46;;;;;;;8.38;4.10;;;13.50;86.40;;;;;;7404721;19;20007;-91
2023/02/12 12:24:20;;;;;;;7.15;4.22;;;13.50;86.50;;;;;;7384566;19;20010;-91
2023/02/12 12:29:33;;;;;;;5.85;3.92;;;13.60;86.40;;;;;;7395899;19;20018;-83
2023/02/12 12:32:05;;;;;;;8.00;4.35;;;13.60;85.70;;;;;;7413959;19;20018;-82
2023/02/12 12:34:33;;;;;;;7.15;4.00;;;13.60;85.80;;;;;;7397540;19;20080;-85
2023/02/12 12:37:24;;;;;;;6.38;3.88;;;13.50;85.50;;;;;;7395332;19;20026;-84
2023/02/12 12:40:13;;;;;;;8.20;4.38;;;13.50;85.60;;;;;;7397115;19;20089;-85
2023/02/12 12:43:03;;;;;;;6.82;4.10;;;13.50;85.40;;;;;;7398513;19;20121;-85
2023/02/12 12:45:58;;;;;;;8.50;4.68;;;13.50;85.40;;;;;;7400172;19;20478;-85
2023/02/12 12:48:38;;;;;;;8.25;4.70;;;13.50;85.70;;;;;;7392684;19;20467;-84
2023/02/12 12:51:20;;;;;;;12.60;5.07;;;13.50;85.70;;;;;;7395828;19;20027;-85
2023/02/12 12:54:01;;;;;;;8.82;4.63;;;13.50;85.60;;;;;;7402256;19;20006;-85
2023/02/12 12:56:39;;;;;;;11.02;5.32;;;13.50;85.40;;;;;;7342464;19;20022;-84
2023/02/12 12:59:28;;;;;;;6.88;4.55;;;13.50;85.20;;;;;;7428626;19;20023;-85
2023/02/12 13:02:37;;;;;;;8.45;4.70;;;13.50;85.20;;;;;;7383227;19;20023;-86
2023/02/12 13:05:25;;;;;;;8.27;5.03;;;13.50;85.40;;;;;;7403852;19;20018;-86
2023/02/12 13:08:04;;;;;;;9.85;4.95;;;13.50;85.40;;;;;;7357170;19;20018;-85
2023/02/12 13:10:42;;;;;;;6.70;4.45;;;13.60;85.40;;;;;;7396459;19;20010;-85
2023/02/12 13:13:26;;;;;;;13.88;4.88;;;13.60;85.40;;;;;;7384373;19;20022;-86
2023/02/12 13:18:46;;;;;;;9.48;5.07;;;13.60;85.60;;;;;;7403936;19;20010;-83
2023/02/12 13:21:20;;;;;;;12.20;6.68;;;13.60;85.60;;;;;;7353353;19;20014;-87
2023/02/12 13:23:56;;;;;;;9.20;5.45;;;13.70;85.40;;;;;;7411885;19;20028;-84
2023/02/12 13:26:38;;;;;;;8.60;5.85;;;13.70;85.40;;;;;;7374895;19;20090;-84
2023/02/12 13:29:13;;;;;;;10.10;5.85;;;13.70;85.10;;;;;;7394849;19;20018;-83